createdAt,value
2024-02-08T00:02:39.269Z,18.52
2024-02-08T00:05:19.501Z,17.02
2024-02-08T00:07:59.328Z,16.48
2024-02-08T00:10:53.334Z,16.52
2024-02-08T00:13:48.295Z,17.48
2024-02-08T00:16:35.297Z,17.20
2024-02-08T00:19:08.468Z,16.60
2024-02-08T00:21:58.269Z,17.27
2024-02-08T00:24:31.968Z,17.63
2024-02-08T00:27:19.261Z,19.20
2024-02-08T00:29:52.430Z,17.85
2024-02-08T00:32:39.336Z,18.40
2024-02-08T00:35:13.420Z,17.20
2024-02-08T00:38:00.373Z,17.02
2024-02-08T00:40:33.537Z,17.70
2024-02-08T00:43:20.298Z,17.58
2024-02-08T00:45:55.736Z,18.08
2024-02-08T00:48:42.379Z,16.60
2024-02-08T00:51:16.273Z,17.42
2024-02-08T00:54:05.298Z,18.85
2024-02-08T00:56:45.288Z,19.33
2024-02-08T00:59:39.705Z,18.23
2024-02-08T01:02:26.339Z,18.48
2024-02-08T01:05:00.338Z,18.35
2024-02-08T01:07:47.322Z,18.38
2024-02-08T01:10:20.430Z,18.20
2024-02-08T01:13:07.268Z,18.25
2024-02-08T01:15:40.424Z,17.02
2024-02-08T01:18:28.394Z,17.95
2024-02-08T01:21:09.310Z,15.85
2024-02-08T01:23:56.278Z,16.63
2024-02-08T01:26:43.295Z,18.30
2024-02-08T01:29:17.777Z,17.90
2024-02-08T01:32:05.406Z,17.67
2024-02-08T01:34:38.830Z,17.65
2024-02-08T01:37:28.414Z,19.08
2024-02-08T01:40:08.281Z,17.05
2024-02-08T01:43:04.345Z,16.83
2024-02-08T01:45:51.366Z,16.60
2024-02-08T01:48:26.771Z,17.20
2024-02-08T01:51:19.294Z,18.48
2024-02-08T01:53:59.319Z,17.98
2024-02-08T01:56:50.341Z,18.15
2024-02-08T01:59:24.217Z,18.25
2024-02-08T02:02:15.481Z,17.60
2024-02-08T02:04:55.312Z,19.15
2024-02-08T02:07:43.345Z,18.95
2024-02-08T02:10:24.405Z,18.45
2024-02-08T02:13:21.320Z,17.83
2024-02-08T02:16:15.314Z,18.85
2024-02-08T02:19:02.403Z,20.10
2024-02-08T02:21:42.383Z,20.23
2024-02-08T02:24:32.360Z,19.60
2024-02-08T02:27:24.350Z,20.33
2024-02-08T02:30:04.375Z,18.40
2024-02-08T02:32:51.541Z,18.35
2024-02-08T02:35:36.343Z,19.45
2024-02-08T02:38:16.500Z,19.02
2024-02-08T02:40:59.328Z,18.92
2024-02-08T02:43:42.181Z,18.30
2024-02-08T02:46:29.355Z,17.27
2024-02-08T02:49:17.324Z,17.55
2024-02-08T02:51:57.345Z,18.60
2024-02-08T02:54:37.715Z,18.88
2024-02-08T02:57:18.355Z,19.15
2024-02-08T03:00:07.335Z,17.80
2024-02-08T03:02:40.827Z,17.00
2024-02-08T03:05:28.440Z,18.58
2024-02-08T03:08:06.425Z,17.50
2024-02-08T03:10:54.334Z,17.60
2024-02-08T03:13:27.709Z,18.65
2024-02-08T03:16:24.393Z,17.15
2024-02-08T03:18:58.981Z,17.45
2024-02-08T03:21:48.337Z,18.08
2024-02-08T03:24:25.603Z,17.25
2024-02-08T03:27:13.339Z,18.48
2024-02-08T03:29:55.158Z,18.17
2024-02-08T03:32:48.361Z,20.02
2024-02-08T03:35:26.857Z,19.15
2024-02-08T03:38:17.407Z,20.58
2024-02-08T03:41:04.404Z,22.58
2024-02-08T03:43:55.467Z,17.23
2024-02-08T03:46:30.472Z,17.73
2024-02-08T03:49:18.332Z,18.00
2024-02-08T03:51:59.400Z,17.88
2024-02-08T03:54:53.345Z,16.63
2024-02-08T03:57:40.364Z,16.23
2024-02-08T04:00:14.823Z,16.15
2024-02-08T04:03:05.343Z,17.50
2024-02-08T04:05:43.427Z,17.67
2024-02-08T04:08:50.355Z,18.77
2024-02-08T04:11:42.209Z,17.58
2024-02-08T04:14:47.424Z,17.92
2024-02-08T04:17:39.069Z,18.75
2024-02-08T04:20:50.368Z,18.08
2024-02-08T04:23:55.406Z,18.98
2024-02-08T04:26:47.238Z,18.23
2024-02-08T04:29:52.399Z,17.52
2024-02-08T04:32:51.561Z,16.88
2024-02-08T04:35:56.339Z,19.48
2024-02-08T04:39:01.409Z,20.15
2024-02-08T04:42:15.286Z,18.98
2024-02-08T04:45:21.403Z,18.75
2024-02-08T04:48:19.528Z,18.80
2024-02-08T04:51:24.388Z,19.23
2024-02-08T04:54:11.530Z,19.42
2024-02-08T04:57:07.404Z,19.23
2024-02-08T05:00:01.508Z,19.05
2024-02-08T05:02:57.404Z,19.02
2024-02-08T05:05:51.442Z,19.63
2024-02-08T05:08:26.150Z,19.75
2024-02-08T05:11:17.524Z,20.05
2024-02-08T05:14:01.620Z,19.08
2024-02-08T05:16:47.422Z,19.73
2024-02-08T05:19:31.912Z,18.33
2024-02-08T05:22:12.643Z,18.42
2024-02-08T05:24:59.464Z,17.35
2024-02-08T05:27:32.753Z,18.67
2024-02-08T05:30:22.389Z,18.33
2024-02-08T05:33:00.579Z,17.27
2024-02-08T05:35:47.407Z,17.13
2024-02-08T05:38:23.164Z,18.25
2024-02-08T05:41:10.405Z,18.13
2024-02-08T05:44:04.388Z,16.92
2024-02-08T05:46:58.410Z,17.05
2024-02-08T05:50:00.516Z,17.33
2024-02-08T05:52:53.425Z,18.05
2024-02-08T05:55:27.626Z,18.58
2024-02-08T05:58:14.440Z,18.75
2024-02-08T06:01:00.473Z,19.63
2024-02-08T06:03:50.234Z,21.00
2024-02-08T06:06:45.449Z,20.88
2024-02-08T06:09:40.310Z,19.63
2024-02-08T06:12:50.401Z,19.35
2024-02-08T06:15:27.161Z,16.63
2024-02-08T06:18:14.570Z,18.10
2024-02-08T06:21:07.420Z,19.67
2024-02-08T06:24:08.396Z,17.00
2024-02-08T06:27:13.418Z,16.42
2024-02-08T06:30:00.517Z,17.30
2024-02-08T06:32:33.613Z,14.55
2024-02-08T06:35:33.493Z,15.88
2024-02-08T06:38:14.960Z,17.02
2024-02-08T06:41:12.412Z,16.25
2024-02-08T06:44:15.434Z,18.10
2024-02-08T06:46:58.047Z,17.90
2024-02-08T06:50:02.551Z,19.00
2024-02-08T06:52:53.982Z,19.30
2024-02-08T06:55:58.473Z,20.65
2024-02-08T06:58:50.568Z,19.50
2024-02-08T07:01:56.652Z,19.23
2024-02-08T07:04:48.109Z,21.08
2024-02-08T07:07:53.571Z,18.50
2024-02-08T07:10:45.177Z,20.35
2024-02-08T07:13:50.484Z,19.92
2024-02-08T07:16:50.490Z,18.45
2024-02-08T07:19:56.510Z,19.95
2024-02-08T07:22:48.166Z,17.40
2024-02-08T07:25:56.485Z,17.60
2024-02-08T07:28:55.489Z,17.85
2024-02-08T07:32:08.435Z,17.55
2024-02-08T07:35:14.557Z,19.90
2024-02-08T07:37:47.847Z,18.15
2024-02-08T07:40:34.585Z,18.25
2024-02-08T07:43:21.674Z,18.75
2024-02-08T07:46:11.529Z,18.80
2024-02-08T07:48:51.581Z,17.30
2024-02-08T07:51:34.954Z,18.35
2024-02-08T07:54:28.470Z,17.75
2024-02-08T07:57:02.182Z,15.40
2024-02-08T07:59:50.497Z,17.40
2024-02-08T08:02:25.255Z,18.33
2024-02-08T08:05:22.572Z,16.77
2024-02-08T08:08:07.515Z,17.05
2024-02-08T08:10:55.552Z,18.88
2024-02-08T08:13:50.817Z,19.40
2024-02-08T08:16:38.566Z,22.58
2024-02-08T08:19:14.271Z,20.15
2024-02-08T08:22:26.506Z,22.33
2024-02-08T08:25:18.570Z,20.98
2024-02-08T08:28:33.998Z,19.23
2024-02-08T08:31:32.620Z,17.95
2024-02-08T08:34:31.661Z,18.90
2024-02-08T08:37:05.615Z,18.83
2024-02-08T08:40:08.543Z,18.23
2024-02-08T08:42:58.500Z,18.95
2024-02-08T08:45:54.610Z,17.40
2024-02-08T08:48:54.609Z,17.77
2024-02-08T08:51:41.508Z,20.98
2024-02-08T08:54:30.438Z,18.83
2024-02-08T08:57:24.392Z,20.88
2024-02-08T09:00:16.511Z,19.75
2024-02-08T09:02:58.482Z,21.27
2024-02-08T09:05:47.558Z,18.20
2024-02-08T09:08:23.670Z,23.85
2024-02-08T09:11:11.512Z,16.80
2024-02-08T09:13:45.436Z,19.85
2024-02-08T09:16:44.577Z,20.58
2024-02-08T09:19:17.898Z,21.73
2024-02-08T09:22:08.478Z,23.17
2024-02-08T09:24:45.812Z,19.55
2024-02-08T09:27:41.461Z,25.10
2024-02-08T09:30:22.529Z,25.27
2024-02-08T09:33:04.989Z,23.10
2024-02-08T09:35:48.573Z,22.65
2024-02-08T09:38:29.521Z,23.38
2024-02-08T09:41:17.497Z,24.08
2024-02-08T09:44:17.513Z,27.48
2024-02-08T09:47:14.485Z,30.65
2024-02-08T09:50:15.696Z,26.23
2024-02-08T09:53:23.530Z,20.52
2024-02-08T09:56:32.527Z,28.92
2024-02-08T09:59:15.589Z,27.75
2024-02-08T10:02:12.636Z,22.58
2024-02-08T10:05:26.539Z,26.55
2024-02-08T10:08:13.568Z,19.02
2024-02-08T10:11:18.536Z,20.35
2024-02-08T10:13:57.285Z,19.13
2024-02-08T10:16:50.545Z,20.95
2024-02-08T10:19:30.412Z,20.40
2024-02-08T10:22:26.650Z,18.77
2024-02-08T10:24:59.930Z,20.30
2024-02-08T10:27:46.559Z,20.40
2024-02-08T10:30:33.563Z,17.40
2024-02-08T10:33:26.688Z,18.13
2024-02-08T10:36:01.206Z,16.20
2024-02-08T10:39:10.561Z,16.95
2024-02-08T10:42:05.572Z,17.90
2024-02-08T10:44:45.944Z,18.27
2024-02-08T10:47:34.774Z,16.90
2024-02-08T10:50:35.576Z,14.73
2024-02-08T10:53:18.392Z,17.20
2024-02-08T10:56:06.587Z,21.00
2024-02-08T10:58:56.335Z,21.30
2024-02-08T11:02:07.619Z,18.05
2024-02-08T11:04:50.588Z,18.83
2024-02-08T11:07:41.653Z,18.85
2024-02-08T11:10:28.617Z,19.55
2024-02-08T11:13:21.594Z,20.67
2024-02-08T11:16:29.042Z,18.30
2024-02-08T11:19:24.662Z,17.80
2024-02-08T11:22:16.664Z,17.52
2024-02-08T11:25:05.572Z,16.58
2024-02-08T11:27:45.575Z,17.52
2024-02-08T11:30:43.583Z,18.35
2024-02-08T11:33:21.654Z,15.73
2024-02-08T11:36:19.584Z,17.13
2024-02-08T11:39:00.251Z,17.27
2024-02-08T11:41:50.584Z,17.75
2024-02-08T11:44:37.868Z,18.27
2024-02-08T11:47:25.620Z,16.33
2024-02-08T11:50:16.589Z,16.85
2024-02-08T11:53:06.582Z,17.67
2024-02-08T11:55:46.836Z,18.30
2024-02-08T11:58:29.611Z,18.73
2024-02-08T12:01:21.667Z,17.77
2024-02-08T12:04:03.562Z,18.60
2024-02-08T12:06:47.760Z,18.40
2024-02-08T12:09:37.660Z,16.63
2024-02-08T12:12:20.585Z,17.15
2024-02-08T12:15:01.593Z,17.27
2024-02-08T12:17:48.640Z,16.25
2024-02-08T12:20:28.606Z,20.70
2024-02-08T12:23:15.961Z,18.30
2024-02-08T12:26:00.572Z,17.73
2024-02-08T12:28:49.118Z,17.67
2024-02-08T12:31:31.780Z,19.63
2024-02-08T12:34:25.723Z,18.55
2024-02-08T12:37:14.617Z,17.77
2024-02-08T12:40:03.620Z,17.60
2024-02-08T12:42:47.642Z,17.63
2024-02-08T12:45:37.599Z,18.67
2024-02-08T12:48:12.080Z,18.95
2024-02-08T12:50:59.567Z,17.42
2024-02-08T12:53:39.764Z,18.15
2024-02-08T12:56:26.561Z,19.77
2024-02-08T12:59:08.617Z,19.70
2024-02-08T13:01:51.482Z,18.40
2024-02-08T13:04:32.887Z,17.65
2024-02-08T13:07:22.595Z,16.50
2024-02-08T13:10:21.596Z,20.02
2024-02-08T13:13:17.809Z,18.15
2024-02-08T13:16:08.648Z,16.67
2024-02-08T13:18:59.934Z,17.58
2024-02-08T13:21:34.582Z,21.73
2024-02-08T13:24:22.610Z,19.48
2024-02-08T13:26:56.348Z,20.92
2024-02-08T13:29:44.577Z,21.27
2024-02-08T13:32:18.041Z,20.35
2024-02-08T13:35:04.730Z,19.70
2024-02-08T13:37:38.786Z,19.33
2024-02-08T13:40:27.866Z,18.65
2024-02-08T13:43:07.707Z,20.23
2024-02-08T13:45:56.573Z,21.25
2024-02-08T13:48:37.668Z,18.52
2024-02-08T13:51:18.120Z,20.00
2024-02-08T13:53:58.585Z,20.13
2024-02-08T13:56:41.761Z,19.20
2024-02-08T13:59:22.707Z,21.25
2024-02-08T14:02:11.633Z,23.55
2024-02-08T14:04:58.794Z,20.50
2024-02-08T14:07:47.586Z,19.27
2024-02-08T14:10:39.722Z,18.98
2024-02-08T14:13:37.672Z,20.55
2024-02-08T14:16:16.548Z,19.27
2024-02-08T14:19:07.780Z,21.45
2024-02-08T14:21:48.683Z,21.02
2024-02-08T14:24:32.217Z,22.08
2024-02-08T14:27:21.674Z,20.50
2024-02-08T14:30:13.679Z,19.75
2024-02-08T14:32:53.815Z,21.90
2024-02-08T14:35:41.625Z,20.08
2024-02-08T14:38:21.662Z,21.20
2024-02-08T14:41:13.772Z,23.13
2024-02-08T14:43:47.908Z,23.88
2024-02-08T14:46:34.836Z,21.70
2024-02-08T14:49:35.675Z,19.02
2024-02-08T14:52:35.469Z,23.88
2024-02-08T14:55:27.686Z,22.70
2024-02-08T14:58:41.814Z,23.70
2024-02-08T15:01:46.729Z,24.77
2024-02-08T15:04:27.311Z,25.92
2024-02-08T15:07:16.630Z,26.98
2024-02-08T15:09:49.773Z,29.42
2024-02-08T15:12:38.664Z,26.83
2024-02-08T15:15:20.381Z,31.23
2024-02-08T15:18:19.692Z,28.80
2024-02-08T15:20:57.807Z,32.95
2024-02-08T15:24:17.628Z,30.45
2024-02-08T15:27:06.345Z,30.88
2024-02-08T15:29:59.613Z,43.92
2024-02-08T15:32:41.834Z,42.78
2024-02-08T15:35:31.741Z,36.58
2024-02-08T15:38:24.347Z,29.02
2024-02-08T15:41:36.645Z,31.50
2024-02-08T15:44:16.635Z,38.10
2024-02-08T15:47:04.682Z,33.35
2024-02-08T15:49:37.862Z,34.13
2024-02-08T15:52:29.897Z,29.80
2024-02-08T15:55:22.683Z,31.90
2024-02-08T15:58:26.858Z,31.45
2024-02-08T16:01:28.915Z,38.78
2024-02-08T16:04:40.674Z,43.50
2024-02-08T16:07:34.675Z,38.55
2024-02-08T16:10:31.682Z,34.88
2024-02-08T16:13:30.664Z,40.15
2024-02-08T16:16:17.672Z,37.83
2024-02-08T16:19:00.012Z,46.70
2024-02-08T16:21:53.667Z,43.00
2024-02-08T16:24:49.622Z,35.97
2024-02-08T16:27:36.667Z,33.88
2024-02-08T16:30:10.922Z,28.55
2024-02-08T16:33:03.724Z,30.42
2024-02-08T16:35:58.712Z,31.48
2024-02-08T16:38:54.641Z,32.17
2024-02-08T16:41:38.661Z,29.30
2024-02-08T16:44:43.572Z,29.75
2024-02-08T16:47:49.694Z,32.00
2024-02-08T16:50:36.146Z,36.00
2024-02-08T16:53:28.680Z,32.58
2024-02-08T16:56:11.790Z,34.50
2024-02-08T16:59:07.664Z,36.45
2024-02-08T17:02:14.768Z,35.28
2024-02-08T17:04:51.484Z,33.17
2024-02-08T17:07:58.727Z,35.08
2024-02-08T17:10:37.850Z,37.22
2024-02-08T17:13:38.720Z,36.80
2024-02-08T17:16:26.886Z,36.03
2024-02-08T17:19:29.703Z,36.60
2024-02-08T17:22:25.692Z,31.23
2024-02-08T17:25:06.407Z,32.33
2024-02-08T17:28:28.704Z,34.38
2024-02-08T17:31:08.961Z,34.00
2024-02-08T17:33:57.918Z,38.90
2024-02-08T17:36:34.256Z,35.95
2024-02-08T17:39:31.701Z,35.13
2024-02-08T17:42:15.695Z,37.33
2024-02-08T17:45:09.690Z,36.15
2024-02-08T17:48:07.865Z,32.78
2024-02-08T17:51:06.719Z,34.97
2024-02-08T17:54:01.941Z,37.08
2024-02-08T17:56:55.700Z,37.33
2024-02-08T17:59:51.695Z,35.20
2024-02-08T18:02:45.666Z,37.67
2024-02-08T18:05:34.677Z,36.00
2024-02-08T18:08:16.733Z,36.47
2024-02-08T18:11:11.705Z,33.90
2024-02-08T18:14:06.692Z,38.22
2024-02-08T18:17:00.698Z,35.72
2024-02-08T18:19:49.758Z,29.48
2024-02-08T18:22:37.716Z,37.95
2024-02-08T18:25:53.683Z,38.20
2024-02-08T18:28:40.913Z,35.70
2024-02-08T18:31:28.887Z,36.85
2024-02-08T18:34:23.850Z,36.45
2024-02-08T18:37:32.813Z,37.08
2024-02-08T18:40:25.784Z,37.72
2024-02-08T18:43:24.701Z,38.40
2024-02-08T18:46:18.764Z,37.95
2024-02-08T18:49:03.884Z,37.58
2024-02-08T18:51:57.738Z,36.30
2024-02-08T18:54:53.585Z,39.03
2024-02-08T18:57:27.813Z,38.38
2024-02-08T19:00:20.684Z,37.38
2024-02-08T19:03:00.716Z,39.22
2024-02-08T19:05:57.702Z,37.33
2024-02-08T19:08:51.713Z,39.53
2024-02-08T19:11:38.731Z,38.35
2024-02-08T19:14:12.639Z,37.08
2024-02-08T19:17:00.788Z,38.75
2024-02-08T19:19:35.447Z,40.08
2024-02-08T19:22:19.770Z,42.03
2024-02-08T19:25:01.308Z,40.15
2024-02-08T19:27:41.687Z,37.50
2024-02-08T19:30:23.759Z,36.10
2024-02-08T19:33:06.830Z,34.13
2024-02-08T19:35:51.393Z,33.53
2024-02-08T19:38:34.737Z,29.65
2024-02-08T19:41:16.700Z,32.20
2024-02-08T19:44:06.734Z,31.88
2024-02-08T19:46:49.932Z,32.03
2024-02-08T19:49:43.045Z,30.48
2024-02-08T19:52:17.676Z,31.20
2024-02-08T19:55:05.765Z,33.17
2024-02-08T19:57:46.744Z,32.75
2024-02-08T20:00:42.278Z,37.08
2024-02-08T20:03:37.752Z,31.42
2024-02-08T20:06:34.818Z,28.13
2024-02-08T20:09:25.744Z,31.23
2024-02-08T20:12:05.831Z,40.25
2024-02-08T20:14:46.755Z,49.72
2024-02-08T20:17:27.840Z,49.17
2024-02-08T20:20:07.764Z,45.38
2024-02-08T20:25:35.280Z,50.10
2024-02-08T20:28:16.894Z,46.97
2024-02-08T20:31:01.740Z,67.05
2024-02-08T20:33:41.947Z,60.95
2024-02-08T20:36:21.732Z,60.38
2024-02-08T20:39:02.044Z,48.70
2024-02-08T20:41:44.742Z,46.33
2024-02-08T20:44:25.474Z,45.15
2024-02-08T20:47:16.732Z,43.97
2024-02-08T20:49:49.927Z,42.47
2024-02-08T20:52:36.770Z,40.22
2024-02-08T20:55:24.881Z,45.50
2024-02-08T20:58:19.132Z,44.75
2024-02-08T21:00:54.287Z,44.55
2024-02-08T21:03:41.749Z,43.53
2024-02-08T21:06:22.785Z,48.60
2024-02-08T21:09:18.775Z,53.13
2024-02-08T21:12:06.760Z,56.50
2024-02-08T21:14:39.941Z,45.00
2024-02-08T21:17:26.775Z,45.83
2024-02-08T21:19:59.942Z,51.58
2024-02-08T21:22:47.790Z,49.28
2024-02-08T21:25:29.826Z,50.05
2024-02-08T21:28:27.780Z,46.03
2024-02-08T21:31:14.929Z,46.50
2024-02-08T21:33:58.094Z,47.60
2024-02-08T21:36:49.735Z,45.72
2024-02-08T21:39:38.759Z,43.85
2024-02-08T21:42:27.755Z,42.65
2024-02-08T21:45:07.749Z,39.63
2024-02-08T21:48:01.815Z,41.53
2024-02-08T21:50:56.741Z,40.47
2024-02-08T21:53:29.864Z,40.90
2024-02-08T21:56:20.762Z,40.35
2024-02-08T21:59:00.751Z,37.75
2024-02-08T22:01:47.734Z,37.80
2024-02-08T22:04:20.947Z,39.88
2024-02-08T22:07:07.893Z,39.97
2024-02-08T22:09:48.747Z,40.67
2024-02-08T22:12:35.762Z,38.90
2024-02-08T22:15:15.759Z,40.85
2024-02-08T22:18:02.944Z,40.28
2024-02-08T22:20:36.871Z,40.03
2024-02-08T22:23:23.750Z,41.35
2024-02-08T22:25:56.881Z,39.53
2024-02-08T22:28:46.794Z,38.95
2024-02-08T22:31:19.864Z,39.53
2024-02-08T22:34:06.797Z,41.63
2024-02-08T22:36:45.008Z,39.00
2024-02-08T22:39:32.812Z,40.67
2024-02-08T22:42:07.188Z,39.33
2024-02-08T22:44:53.766Z,40.85
2024-02-08T22:47:40.780Z,41.08
2024-02-08T22:50:21.901Z,41.42
2024-02-08T22:53:09.747Z,40.53
2024-02-08T22:55:49.770Z,41.45
2024-02-08T22:58:29.958Z,39.55
2024-02-08T23:01:29.891Z,44.08
2024-02-08T23:04:22.840Z,42.50
2024-02-08T23:06:56.186Z,41.28
2024-02-08T23:09:42.782Z,41.45
2024-02-08T23:12:17.844Z,42.45
2024-02-08T23:15:04.752Z,42.40
2024-02-08T23:17:44.802Z,43.00
2024-02-08T23:20:31.763Z,43.65
2024-02-08T23:23:05.233Z,40.47
2024-02-08T23:25:51.782Z,40.47
2024-02-08T23:28:27.612Z,38.92
2024-02-08T23:31:15.822Z,42.00
2024-02-08T23:33:55.912Z,40.22
2024-02-08T23:36:29.355Z,39.58
2024-02-08T23:39:15.768Z,39.55
2024-02-08T23:41:50.768Z,38.92
2024-02-08T23:44:37.777Z,40.72
2024-02-08T23:47:15.851Z,39.00
2024-02-08T23:50:02.809Z,38.05
2024-02-08T23:52:41.172Z,39.22
2024-02-08T23:55:27.830Z,39.88
2024-02-08T23:58:01.140Z,39.20
